createdAt,value
2019-05-09T00:01:35.352Z,12.34
2019-05-09T00:04:05.027Z,12.32
2019-05-09T00:06:34.363Z,12.34
2019-05-09T00:09:05.309Z,12.33
2019-05-09T00:11:34.840Z,12.38
2019-05-09T00:14:04.695Z,12.29
2019-05-09T00:16:34.126Z,12.29
2019-05-09T00:19:03.570Z,12.33
2019-05-09T00:21:40.202Z,12.28
2019-05-09T00:24:09.515Z,12.29
2019-05-09T00:26:38.776Z,12.27
2019-05-09T00:29:14.068Z,12.28
2019-05-09T00:32:07.812Z,12.30
2019-05-09T00:34:49.706Z,12.29
2019-05-09T00:37:20.652Z,12.27
2019-05-09T00:39:49.924Z,12.19
2019-05-09T00:42:19.186Z,12.19
2019-05-09T00:44:50.363Z,12.00
2019-05-09T00:47:25.837Z,11.87
2019-05-09T00:49:55.140Z,11.88
2019-05-09T00:52:24.529Z,11.82
2019-05-09T00:54:56.104Z,11.85
2019-05-09T00:57:34.392Z,11.89
2019-05-09T01:00:09.402Z,11.95
2019-05-09T01:02:38.684Z,11.95
2019-05-09T01:05:08.767Z,11.97
2019-05-09T01:07:38.044Z,11.91
2019-05-09T01:10:07.940Z,11.88
2019-05-09T01:12:37.218Z,11.84
2019-05-09T01:15:07.199Z,11.86
2019-05-09T01:17:36.455Z,11.85
2019-05-09T01:20:06.596Z,11.79
2019-05-09T01:22:35.860Z,11.74
2019-05-09T01:25:05.698Z,11.79
2019-05-09T01:27:35.012Z,11.79
2019-05-09T01:30:04.941Z,11.72
2019-05-09T01:33:05.836Z,11.66
2019-05-09T01:35:35.118Z,11.64
2019-05-09T01:38:04.517Z,11.56
2019-05-09T01:40:33.859Z,11.44
2019-05-09T01:43:04.467Z,11.41
2019-05-09T01:45:34.292Z,11.44
2019-05-09T01:48:03.763Z,11.47
2019-05-09T01:50:34.032Z,11.50
2019-05-09T01:53:04.110Z,11.52
2019-05-09T01:55:51.057Z,11.46
2019-05-09T02:16:23.836Z,10.99
2019-05-09T02:19:04.052Z,11.05
2019-05-09T02:21:34.534Z,11.11
2019-05-09T02:24:04.056Z,11.20
2019-05-09T02:26:33.577Z,11.21
2019-05-09T02:29:03.436Z,11.30
2019-05-09T02:31:35.457Z,11.32
2019-05-09T02:34:04.854Z,11.43
2019-05-09T02:36:34.642Z,11.41
2019-05-09T02:39:09.091Z,11.49
2019-05-09T02:41:39.009Z,11.45
2019-05-09T02:44:09.257Z,11.38
2019-05-09T02:46:44.536Z,11.30
2019-05-09T02:49:13.840Z,11.22
2019-05-09T02:51:43.097Z,11.18
2019-05-09T02:54:12.392Z,11.21
2019-05-09T02:56:41.671Z,11.19
2019-05-09T02:59:18.932Z,11.13
2019-05-09T03:01:58.600Z,11.10
2019-05-09T03:04:28.425Z,11.04
2019-05-09T03:06:59.681Z,11.07
2019-05-09T03:09:29.029Z,11.08
2019-05-09T03:11:59.258Z,10.98
2019-05-09T03:14:29.361Z,10.92
2019-05-09T03:16:59.062Z,10.81
2019-05-09T03:19:29.661Z,10.73
2019-05-09T03:22:03.344Z,10.62
2019-05-09T03:24:32.630Z,10.61
2019-05-09T03:27:08.506Z,10.61
2019-05-09T03:29:44.362Z,10.71
2019-05-09T03:32:13.884Z,10.70
2019-05-09T03:34:43.187Z,10.64
2019-05-09T03:37:12.466Z,10.76
2019-05-09T03:39:41.743Z,10.76
2019-05-09T03:42:11.028Z,10.81
2019-05-09T03:44:40.296Z,10.87
2019-05-09T03:47:28.501Z,10.90
2019-05-09T03:50:11.741Z,10.87
2019-05-09T03:52:41.023Z,10.86
2019-05-09T03:55:12.902Z,10.81
2019-05-09T03:57:47.660Z,10.86
2019-05-09T04:00:18.053Z,10.80
2019-05-09T04:02:47.598Z,10.77
2019-05-09T04:05:18.098Z,10.79
2019-05-09T04:07:48.510Z,10.79
2019-05-09T04:10:18.102Z,10.88
2019-05-09T04:12:56.302Z,10.81
2019-05-09T04:15:21.162Z,10.87
2019-05-09T04:17:50.422Z,10.85
2019-05-09T04:20:20.274Z,10.85
2019-05-09T04:22:49.568Z,10.91
2019-05-09T04:25:23.282Z,11.02
2019-05-09T04:27:53.239Z,11.09
2019-05-09T04:30:22.506Z,11.09
2019-05-09T04:32:51.759Z,11.03
2019-05-09T04:35:21.037Z,11.05
2019-05-09T04:37:50.296Z,11.03
2019-05-09T04:40:19.608Z,10.95
2019-05-09T04:42:48.876Z,10.95
2019-05-09T04:45:28.364Z,10.92
2019-05-09T04:47:57.854Z,10.94
2019-05-09T04:50:27.958Z,10.98
2019-05-09T04:52:57.991Z,11.03
2019-05-09T04:55:29.202Z,11.08
2019-05-09T04:58:00.260Z,11.12
2019-05-09T05:00:48.885Z,11.20
2019-05-09T05:03:18.395Z,11.25
2019-05-09T05:05:48.272Z,11.34
2019-05-09T05:08:18.208Z,11.32
2019-05-09T05:10:47.830Z,11.35
2019-05-09T05:13:26.320Z,11.29
2019-05-09T05:15:48.186Z,11.30
2019-05-09T05:18:20.305Z,11.38
2019-05-09T05:20:48.500Z,11.44
2019-05-09T05:23:24.228Z,11.45
2019-05-09T05:25:53.534Z,11.59
2019-05-09T05:28:22.798Z,11.64
2019-05-09T05:30:52.105Z,11.76
2019-05-09T05:33:45.755Z,11.85
2019-05-09T05:36:15.298Z,11.94
2019-05-09T05:38:44.577Z,12.02
2019-05-09T05:41:13.854Z,12.18
2019-05-09T05:43:44.726Z,12.33
2019-05-09T05:46:51.562Z,12.40
2019-05-09T05:49:21.172Z,12.45
2019-05-09T05:51:50.473Z,12.72
2019-05-09T05:54:21.341Z,12.83
2019-05-09T05:56:51.119Z,12.88
2019-05-09T05:59:20.597Z,13.03
2019-05-09T06:01:50.429Z,12.99
2019-05-09T06:04:27.641Z,12.97
2019-05-09T06:06:58.834Z,13.03
2019-05-09T06:09:28.234Z,13.01
2019-05-09T06:11:57.879Z,13.02
2019-05-09T06:14:28.592Z,12.93
2019-05-09T06:16:59.050Z,12.86
2019-05-09T06:19:28.757Z,12.94
2019-05-09T06:21:58.253Z,12.91
2019-05-09T06:24:28.399Z,13.04
2019-05-09T06:26:58.546Z,13.28
2019-05-09T06:29:28.873Z,13.35
2019-05-09T06:31:58.606Z,13.45
2019-05-09T06:34:27.929Z,13.50
2019-05-09T06:36:58.569Z,13.58
2019-05-09T06:39:28.585Z,13.57
2019-05-09T06:41:57.872Z,13.58
2019-05-09T06:44:42.902Z,13.39
2019-05-09T06:47:19.454Z,13.13
2019-05-09T06:49:51.960Z,13.02
2019-05-09T06:52:21.285Z,12.85
2019-05-09T06:54:50.544Z,12.65
2019-05-09T06:57:19.850Z,12.54
2019-05-09T06:59:49.128Z,12.66
2019-05-09T07:02:38.805Z,12.89
2019-05-09T07:05:14.235Z,13.07
2019-05-09T07:07:48.238Z,13.27
2019-05-09T07:10:17.859Z,13.50
2019-05-09T07:12:48.670Z,13.70
2019-05-09T07:15:18.635Z,13.80
2019-05-09T07:17:48.252Z,13.82
2019-05-09T07:20:18.253Z,14.02
2019-05-09T07:22:50.608Z,13.99
2019-05-09T07:25:38.414Z,14.13
2019-05-09T07:28:07.894Z,14.64
2019-05-09T07:30:59.056Z,15.37
2019-05-09T07:33:35.138Z,16.00
2019-05-09T07:36:04.708Z,15.89
2019-05-09T07:38:34.569Z,16.42
2019-05-09T07:41:04.133Z,17.36
2019-05-09T07:43:33.406Z,19.83
2019-05-09T07:46:28.600Z,22.63
2019-05-09T07:48:59.072Z,24.90
2019-05-09T07:51:28.353Z,27.93
2019-05-09T07:53:58.977Z,29.17
2019-05-09T07:56:28.645Z,29.77
2019-05-09T07:58:58.635Z,30.01
2019-05-09T08:01:28.322Z,30.84
2019-05-09T08:03:58.497Z,33.07
2019-05-09T08:06:29.710Z,34.61
2019-05-09T08:08:59.130Z,35.57
2019-05-09T08:11:31.805Z,35.79
2019-05-09T08:13:59.374Z,36.93
2019-05-09T08:16:28.632Z,35.17
2019-05-09T08:18:58.058Z,33.74
2019-05-09T08:21:27.856Z,33.70
2019-05-09T08:23:57.993Z,33.51
2019-05-09T08:26:29.678Z,34.28
2019-05-09T08:28:58.712Z,34.28
2019-05-09T08:31:28.317Z,34.48
2019-05-09T08:33:59.441Z,36.09
2019-05-09T08:36:28.687Z,34.84
2019-05-09T08:38:58.841Z,32.97
2019-05-09T08:41:29.172Z,31.09
2019-05-09T08:43:58.652Z,28.50
2019-05-09T08:46:28.759Z,25.63
2019-05-09T08:48:58.192Z,22.80
2019-05-09T08:51:56.085Z,21.07
2019-05-09T08:54:39.046Z,20.82
2019-05-09T08:57:10.546Z,20.37
2019-05-09T08:59:39.878Z,20.25
2019-05-09T09:02:18.542Z,22.49
2019-05-09T09:04:40.142Z,22.55
2019-05-09T09:07:09.852Z,23.08
2019-05-09T09:09:39.128Z,22.63
2019-05-09T09:12:23.065Z,22.81
2019-05-09T09:14:39.686Z,26.02
2019-05-09T09:17:08.954Z,24.54
2019-05-09T09:19:38.735Z,23.06
2019-05-09T09:22:08.794Z,21.55
2019-05-09T09:24:38.559Z,19.72
2019-05-09T09:27:07.937Z,18.82
2019-05-09T09:29:37.984Z,17.63
2019-05-09T09:32:08.425Z,17.05
2019-05-09T09:34:38.221Z,17.05
2019-05-09T09:37:11.226Z,16.80
2019-05-09T09:39:44.487Z,16.55
2019-05-09T09:42:09.470Z,16.74
2019-05-09T09:44:39.277Z,17.55
2019-05-09T09:47:08.950Z,18.96
2019-05-09T09:49:38.537Z,22.97
2019-05-09T09:52:08.749Z,25.91
2019-05-09T09:54:38.651Z,27.19
2019-05-09T09:57:09.755Z,29.06
2019-05-09T09:59:49.120Z,31.43
2019-05-09T10:02:21.017Z,31.63
2019-05-09T10:04:50.275Z,32.75
2019-05-09T10:07:19.557Z,32.94
2019-05-09T10:09:48.852Z,30.89
2019-05-09T10:12:18.329Z,30.30
2019-05-09T10:15:00.581Z,29.47
2019-05-09T10:17:42.924Z,29.62
2019-05-09T10:20:21.183Z,30.81
2019-05-09T10:22:59.818Z,31.69
2019-05-09T10:25:21.428Z,30.86
2019-05-09T10:27:50.514Z,29.52
2019-05-09T10:30:24.526Z,28.20
2019-05-09T10:32:53.754Z,27.02
2019-05-09T10:35:24.092Z,29.20
2019-05-09T10:37:53.340Z,31.13
2019-05-09T10:40:23.696Z,30.85
2019-05-09T10:43:34.043Z,31.49
2019-05-09T10:46:19.318Z,32.13
2019-05-09T10:48:58.441Z,33.78
2019-05-09T10:51:26.979Z,35.67
2019-05-09T10:53:58.537Z,33.98
2019-05-09T10:56:28.055Z,32.19
2019-05-09T10:58:58.459Z,31.94
2019-05-09T11:01:29.402Z,32.61
2019-05-09T11:03:59.351Z,32.55
2019-05-09T11:06:29.123Z,31.02
2019-05-09T11:08:58.816Z,30.31
2019-05-09T11:11:28.754Z,28.97
2019-05-09T11:13:58.901Z,27.05
2019-05-09T11:16:41.749Z,26.65
2019-05-09T11:18:59.329Z,25.37
2019-05-09T11:21:28.988Z,24.01
2019-05-09T11:23:58.753Z,22.88
2019-05-09T11:26:28.864Z,22.21
2019-05-09T11:28:58.950Z,21.59
2019-05-09T11:31:29.549Z,20.66
2019-05-09T11:33:59.194Z,19.83
2019-05-09T11:36:28.437Z,19.57
2019-05-09T11:39:00.654Z,19.63
2019-05-09T11:41:29.801Z,19.58
2019-05-09T11:44:00.129Z,19.35
2019-05-09T11:46:29.345Z,19.20
2019-05-09T11:48:59.066Z,19.17
2019-05-09T11:51:29.414Z,19.28
2019-05-09T11:53:58.777Z,18.91
2019-05-09T11:56:28.036Z,18.38
2019-05-09T11:58:57.918Z,18.21
2019-05-09T12:01:29.230Z,17.96
2019-05-09T12:03:58.400Z,17.95
2019-05-09T12:06:29.034Z,18.19
2019-05-09T12:08:59.021Z,18.30
2019-05-09T12:11:28.441Z,18.41
2019-05-09T12:13:58.336Z,18.67
2019-05-09T12:16:28.120Z,18.80
2019-05-09T12:18:58.350Z,18.99
2019-05-09T12:21:28.470Z,18.75
2019-05-09T12:23:58.506Z,18.20
2019-05-09T12:26:29.125Z,17.71
2019-05-09T12:28:58.751Z,17.65
2019-05-09T12:31:29.015Z,17.64
2019-05-09T12:33:59.419Z,17.44
2019-05-09T12:36:30.610Z,17.08
2019-05-09T12:38:59.912Z,16.47
2019-05-09T12:41:31.654Z,14.10
2019-05-09T12:44:00.323Z,11.77
2019-05-09T12:46:29.550Z,10.82
2019-05-09T12:48:59.455Z,10.53
2019-05-09T12:51:28.771Z,10.49
2019-05-09T12:53:58.217Z,10.50
2019-05-09T12:56:28.444Z,10.64
2019-05-09T12:58:58.175Z,10.68
2019-05-09T13:01:27.657Z,10.89
2019-05-09T13:03:58.341Z,11.03
2019-05-09T13:06:29.616Z,11.14
2019-05-09T13:08:58.924Z,11.31
2019-05-09T13:11:28.310Z,11.49
2019-05-09T13:13:57.603Z,12.39
2019-05-09T13:16:47.576Z,12.72
2019-05-09T13:19:08.099Z,12.70
2019-05-09T13:21:38.913Z,12.92
2019-05-09T13:24:08.747Z,13.29
2019-05-09T13:26:38.629Z,13.61
2019-05-09T13:29:08.447Z,14.02
2019-05-09T13:31:39.436Z,14.65
2019-05-09T13:34:08.935Z,15.16
2019-05-09T13:36:38.163Z,15.36
2019-05-09T13:39:09.869Z,15.59
2019-05-09T13:41:39.909Z,16.17
2019-05-09T13:44:13.672Z,16.99
2019-05-09T13:46:40.260Z,17.26
2019-05-09T13:49:14.780Z,17.80
2019-05-09T13:51:49.448Z,18.63
2019-05-09T13:54:13.611Z,19.18
2019-05-09T13:56:42.885Z,19.80
2019-05-09T13:59:12.307Z,20.24
2019-05-09T14:01:41.560Z,19.89
2019-05-09T14:04:10.845Z,19.91
2019-05-09T14:06:40.109Z,19.67
2019-05-09T14:09:12.916Z,19.51
2019-05-09T14:11:42.169Z,19.85
2019-05-09T14:14:12.230Z,20.61
2019-05-09T14:16:41.550Z,20.78
2019-05-09T14:19:29.178Z,19.90
2019-05-09T14:21:41.774Z,19.59
2019-05-09T14:24:15.383Z,18.90
2019-05-09T14:26:42.127Z,18.66
2019-05-09T14:29:13.279Z,19.07
2019-05-09T14:31:42.343Z,19.84
2019-05-09T14:34:11.612Z,20.24
2019-05-09T14:36:45.428Z,21.22
2019-05-09T14:39:11.907Z,20.91
2019-05-09T14:41:41.117Z,20.56
2019-05-09T14:44:10.395Z,20.42
2019-05-09T14:46:39.628Z,20.02
2019-05-09T14:49:09.037Z,19.47
2019-05-09T14:51:39.705Z,19.58
2019-05-09T14:54:08.971Z,19.05
2019-05-09T14:56:42.183Z,18.71
2019-05-09T14:59:09.991Z,18.71
2019-05-09T15:01:43.716Z,18.86
2019-05-09T15:04:10.612Z,18.94
2019-05-09T15:06:39.860Z,19.02
2019-05-09T15:09:09.496Z,19.03
2019-05-09T15:11:39.771Z,18.92
2019-05-09T15:14:09.335Z,18.78
2019-05-09T15:16:39.371Z,18.78
2019-05-09T15:19:08.903Z,18.88
2019-05-09T15:21:38.529Z,18.92
2019-05-09T15:24:09.244Z,19.01
2019-05-09T15:26:38.756Z,19.10
2019-05-09T15:29:08.387Z,19.24
2019-05-09T15:31:39.235Z,19.22
2019-05-09T15:34:10.380Z,19.15
2019-05-09T15:36:39.588Z,19.12
2019-05-09T15:39:08.909Z,19.27
2019-05-09T15:41:38.674Z,19.81
2019-05-09T15:44:08.584Z,19.81
2019-05-09T15:46:51.453Z,20.45
2019-05-09T15:49:20.744Z,20.19
2019-05-09T15:51:50.000Z,19.70
2019-05-09T15:54:19.229Z,19.43
2019-05-09T15:56:48.654Z,19.08
2019-05-09T15:59:18.558Z,18.46
2019-05-09T16:01:49.093Z,18.30
2019-05-09T16:04:19.748Z,17.92
2019-05-09T16:06:50.812Z,17.76
2019-05-09T16:09:20.046Z,17.87
2019-05-09T16:11:49.320Z,18.03
2019-05-09T16:14:18.732Z,18.23
2019-05-09T16:16:48.082Z,18.07
2019-05-09T16:19:17.314Z,17.85
2019-05-09T16:21:47.757Z,17.58
2019-05-09T16:24:18.885Z,17.34
2019-05-09T16:26:48.892Z,17.26
2019-05-09T16:29:19.422Z,17.37
2019-05-09T16:31:48.740Z,17.59
2019-05-09T16:34:18.094Z,17.57
2019-05-09T16:36:48.169Z,17.62
2019-05-09T16:39:18.035Z,17.57
2019-05-09T16:41:48.395Z,17.50
2019-05-09T16:44:18.676Z,17.48
2019-05-09T16:46:48.725Z,17.46
2019-05-09T16:49:19.847Z,17.33
2019-05-09T16:51:49.180Z,17.17
2019-05-09T16:54:18.435Z,17.10
2019-05-09T16:56:47.681Z,17.22
2019-05-09T16:59:17.905Z,17.26
2019-05-09T17:01:50.373Z,17.27
2019-05-09T17:04:19.315Z,17.38
2019-05-09T17:06:49.668Z,17.40
2019-05-09T17:09:19.214Z,16.99
2019-05-09T17:11:48.536Z,16.86
2019-05-09T17:14:19.300Z,17.02
2019-05-09T17:16:52.626Z,16.87
2019-05-09T17:19:19.749Z,16.89
2019-05-09T17:22:01.168Z,16.61
2019-05-09T17:24:30.440Z,16.56
2019-05-09T17:26:59.706Z,16.47
2019-05-09T17:29:28.911Z,16.35
2019-05-09T17:31:58.566Z,15.91
2019-05-09T17:34:28.694Z,13.74
2019-05-09T17:36:58.047Z,11.61
2019-05-09T17:39:27.866Z,10.95
2019-05-09T17:41:58.334Z,10.72
2019-05-09T17:44:28.212Z,10.47
2019-05-09T17:46:58.167Z,10.40
2019-05-09T17:49:28.147Z,10.25
2019-05-09T17:51:58.423Z,10.30
2019-05-09T17:54:28.711Z,10.27
2019-05-09T17:56:58.182Z,10.53
2019-05-09T17:59:29.229Z,10.57
2019-05-09T18:01:58.417Z,10.64
2019-05-09T18:04:28.759Z,10.91
2019-05-09T18:06:58.681Z,11.06
2019-05-09T18:09:28.692Z,11.17
2019-05-09T18:11:58.191Z,11.39
2019-05-09T18:14:27.765Z,11.57
2019-05-09T18:16:58.141Z,11.69
2019-05-09T18:19:29.319Z,11.69
2019-05-09T18:21:58.951Z,11.77
2019-05-09T18:24:28.810Z,11.75
2019-05-09T18:26:58.559Z,11.84
2019-05-09T18:29:27.859Z,12.03
2019-05-09T18:32:22.077Z,11.99
2019-05-09T18:34:53.290Z,12.07
2019-05-09T18:37:22.525Z,12.06
2019-05-09T18:39:51.857Z,12.01
2019-05-09T18:42:21.139Z,12.16
2019-05-09T18:44:50.537Z,12.13
2019-05-09T18:47:19.875Z,12.20
2019-05-09T18:49:49.103Z,12.29
2019-05-09T18:52:18.516Z,12.31
2019-05-09T18:54:47.769Z,12.35
2019-05-09T18:57:17.023Z,12.35
2019-05-09T18:59:46.266Z,12.37
2019-05-09T19:02:15.523Z,12.28
2019-05-09T19:04:44.765Z,12.29
2019-05-09T19:07:22.534Z,12.36
2019-05-09T19:09:44.962Z,12.36
2019-05-09T19:12:14.263Z,12.36
2019-05-09T19:14:44.611Z,12.33
2019-05-09T19:17:38.804Z,12.34
2019-05-09T19:20:15.818Z,12.19
2019-05-09T19:22:45.074Z,12.21
2019-05-09T19:25:14.706Z,12.15
2019-05-09T19:27:43.960Z,12.26
2019-05-09T19:30:13.219Z,12.24
2019-05-09T19:32:42.558Z,12.29
2019-05-09T19:35:11.883Z,12.17
2019-05-09T19:37:41.099Z,12.14
2019-05-09T19:40:11.357Z,12.15
2019-05-09T19:42:40.590Z,12.04
2019-05-09T19:45:09.942Z,11.99
2019-05-09T19:47:39.167Z,11.98
2019-05-09T19:50:09.444Z,11.90
2019-05-09T19:52:38.953Z,11.87
2019-05-09T19:55:08.456Z,11.91
2019-05-09T19:57:37.677Z,12.01
2019-05-09T20:00:07.242Z,12.07
2019-05-09T20:02:36.479Z,12.09
2019-05-09T20:05:05.858Z,12.10
2019-05-09T20:07:35.085Z,11.98
2019-05-09T20:10:22.803Z,12.00
2019-05-09T20:13:26.139Z,11.88
2019-05-09T20:15:55.362Z,11.87
2019-05-09T20:18:24.639Z,12.01
2019-05-09T20:20:53.912Z,11.92
2019-05-09T20:23:23.179Z,11.92
2019-05-09T20:25:52.410Z,11.97
2019-05-09T20:28:21.643Z,12.00
2019-05-09T20:30:50.898Z,12.00
2019-05-09T20:33:20.130Z,12.03
2019-05-09T20:35:49.500Z,12.15
2019-05-09T20:38:18.914Z,12.07
2019-05-09T20:40:48.337Z,12.17
2019-05-09T20:43:17.769Z,12.12
2019-05-09T20:45:47.243Z,12.13
2019-05-09T20:48:16.648Z,11.99
2019-05-09T20:50:45.926Z,11.77
2019-05-09T20:53:15.375Z,11.83
2019-05-09T20:55:44.830Z,11.78
2019-05-09T20:58:14.246Z,11.75
2019-05-09T21:00:43.682Z,11.71
2019-05-09T21:03:13.114Z,11.76
2019-05-09T21:05:42.547Z,11.63
2019-05-09T21:08:11.939Z,11.74
2019-05-09T21:10:41.440Z,11.73
2019-05-09T21:13:10.859Z,11.77
2019-05-09T21:15:40.333Z,11.75
2019-05-09T21:18:10.149Z,11.78
2019-05-09T21:20:39.710Z,11.90
2019-05-09T21:23:22.891Z,11.93
2019-05-09T21:25:40.454Z,11.89
2019-05-09T21:28:09.901Z,11.94
2019-05-09T21:30:39.370Z,11.86
2019-05-09T21:33:08.771Z,11.91
2019-05-09T21:35:38.023Z,11.97
2019-05-09T21:38:08.845Z,11.93
2019-05-09T21:40:38.093Z,11.96
2019-05-09T21:43:07.361Z,11.89
2019-05-09T21:45:36.601Z,11.95
2019-05-09T21:48:05.852Z,11.93
2019-05-09T21:50:35.201Z,11.98
2019-05-09T21:53:04.461Z,11.97
2019-05-09T21:55:33.717Z,11.95
2019-05-09T21:58:02.952Z,11.98
2019-05-09T22:00:36.778Z,12.00
2019-05-09T22:03:06.938Z,11.98
2019-05-09T22:05:36.293Z,12.01
2019-05-09T22:08:05.646Z,12.01
2019-05-09T22:10:34.960Z,12.03
2019-05-09T22:13:04.203Z,11.99
2019-05-09T22:15:33.573Z,11.98
2019-05-09T22:18:02.818Z,11.99
2019-05-09T22:20:32.027Z,11.91
2019-05-09T22:23:01.286Z,11.99
2019-05-09T22:25:30.521Z,11.96
2019-05-09T22:27:59.774Z,11.91
2019-05-09T22:30:28.993Z,11.91
2019-05-09T22:32:58.248Z,11.92
2019-05-09T22:35:27.468Z,11.96
2019-05-09T22:37:56.727Z,11.96
2019-05-09T22:40:25.947Z,11.99
2019-05-09T22:42:55.231Z,12.00
2019-05-09T22:45:24.454Z,12.07
2019-05-09T22:47:53.696Z,12.05
2019-05-09T22:50:22.917Z,11.99
2019-05-09T22:52:52.177Z,11.98
2019-05-09T22:55:21.399Z,11.89
2019-05-09T22:57:50.666Z,11.83
2019-05-09T23:00:19.889Z,11.87
2019-05-09T23:02:49.136Z,11.88
2019-05-09T23:05:18.646Z,11.86
2019-05-09T23:07:47.908Z,11.84
2019-05-09T23:10:17.127Z,11.86
2019-05-09T23:12:46.414Z,11.94
2019-05-09T23:15:17.416Z,11.91
2019-05-09T23:17:46.739Z,11.90
2019-05-09T23:20:34.010Z,11.91
2019-05-09T23:23:23.943Z,11.93
2019-05-09T23:25:53.179Z,11.92
2019-05-09T23:28:22.700Z,12.00
2019-05-09T23:30:53.625Z,12.09
2019-05-09T23:33:24.433Z,12.02
2019-05-09T23:35:53.658Z,12.00
2019-05-09T23:38:22.916Z,12.01
2019-05-09T23:40:52.131Z,11.94
2019-05-09T23:43:21.402Z,11.88
2019-05-09T23:45:50.642Z,11.85
2019-05-09T23:48:19.911Z,11.77
2019-05-09T23:50:49.163Z,11.59
2019-05-09T23:53:31.691Z,11.63
2019-05-09T23:56:18.468Z,11.71
2019-05-09T23:59:05.531Z,11.65
